Ava, MO (65608)

2:32 AM CDT on July 11, 2014 (GMT -0500)
KMOAVA4 Elev 1273 ft | 36.96 °N, 92.67 °W | Change Station

Current weather conditions updated 3 seconds ago

Mostly Cloudy
Mostly Cloudy
67.6 °F
Feels Like 67.6 °F
N
0.0
Wind Variable Wind from ESE
Gusts 0.0 mph

Today is forecast to be Much Warmer than yesterday.

Today
High -- | Low -- °F
--% Chance of Precip.
Yesterday
High -- | Low -- °F
Precip. -- in
6:00 AM 8:31 PM
Waxing Gibbous, 98% visible
Pressure 30.09 in
Visibility 8.0 miles
Clouds Mostly Cloudy 7500 ft
Mostly Cloudy 10000 ft
Dew Point 57 °F
Humidity 69%
Rainfall 0.00 in
Snow Depth Not available.
UV 0 out of 12
Pollen 3.80 out of 12
Air Quality Not available.
Flu Activity Sporadic
METAR KBPK 110653Z AUTO 13003KT 8SM BKN075 BKN100 21/21 A3011 RMK AO2 SLP187 T02110206

More Conditions Fewer Conditions

Pressure 30.09 in
Visibility 8.0 miles
Clouds Mostly Cloudy 7500 ft
Mostly Cloudy 10000 ft
Dew Point 57 °F
Humidity 69%
Rainfall 0.00 in
Snow Depth Not available.
UV 0 out of 12
Pollen 3.80 out of 12
Air Quality Not available.
Flu Activity Sporadic
METAR KBPK 110653Z AUTO 13003KT 8SM BKN075 BKN100 21/21 A3011 RMK AO2 SLP187 T02110206

More Conditions Fewer Conditions

10-Day Weather Forecast

Almanac

Astronomy

Jul. 11, 2014 Rise Set
Actual Time 6:00 AM CDT 8:31 PM CDT
Civil Twilight 5:30 AM CDT 9:01 PM CDT
Nautical Twilight 4:52 AM CDT 9:39 PM CDT
Astronomical Twilight 4:11 AM CDT 10:20 PM CDT
Moon 7:44 PM CDT 5:11 AM CDT
Length of Visible Light 15h 31m
Length of Day
14h 31m
Tomorrow will be 1m 2s shorter.
Waxing Gibbous, 98% of the Moon is Illuminated
Today
Waxing Gibbous
Jul 12
Full
Jul 18
Last Quarter
Jul 26
New
Aug 3
First Quarter

Today's Extremes

State Highs State Lows

Community

WunderPhotos

Upload Photos

1,732,407 photos uploaded!

Nearby

Snow Depth

Station Depth Elevation
No new snow has been reported.

Earthquake Activity

City Distance Mag. Time & Date
No recent earthquake activity has been reported nearby.
Minimum magnitude displayed is 2.5.

Coastal Water Temperatures

Place Temperature
No Stations Reporting

Nearby Weather Stations

Station Location Temp. Dew Point Humidity Wind Precip. Elev Updated Type
Ava, MO 67.6 °F 57 °F 69% ESE  at  0.0 mph 0.00 in / hr 1273 ft 2:32 AM CDT Rapid Fire
Ava, MO 66.3 °F 65 °F 95% SE  at  0.0 mph 0.00 in / hr 1365 ft 2:32 AM CDT Normal
Jackson Mill, Ava, MO 66.4 °F 66 °F 98% SW  at  0.0 mph - / hr 1181 ft 2:31 AM CDT Normal
RAWS AVA MO, Rueter, MO 68 °F 67 °F 98% SSE  at  4 mph 0.00 in / hr 1100 ft 1:53 AM CDT MADIS

Show More Stations Show Fewer Stations